Time;durP1;ratioP1;P1;durP2;ratioP2;P2;SDS_P1;SDS_P2;PMS_P1;PMS_P2;Temp;Humidity;BMP_temperature;BMP_pressure;BME280_temperature;BME280_humidity;BME280_pressure;Samples;Min_cycle;Max_cycle;Signal;HPM_P1;HPM_P2
2024/01/10 00:01:42;;;;;;;14.15;8.55;;;;;;;;;;4990893;28;20065;-48
2024/01/10 00:04:08;;;;;;;14.63;9.80;;;-2.40;99.90;;;;;;4981430;28;20131;-48
2024/01/10 00:06:34;;;;;;;16.27;9.45;;;;;;;;;;4988712;28;20042;-49
2024/01/10 00:09:00;;;;;;;15.65;9.95;;;;;;;;;;4988703;28;20042;-49
2024/01/10 00:11:26;;;;;;;14.13;8.95;;;;;;;;;;4988592;28;20038;-49
2024/01/10 00:13:52;;;;;;;16.52;9.55;;;;;;;;;;4986082;28;20150;-51
2024/01/10 00:16:18;;;;;;;16.83;9.95;;;;;;;;;;4989536;28;20034;-48
2024/01/10 00:18:44;;;;;;;14.73;9.75;;;;;;;;;;4990154;28;20050;-49
2024/01/10 00:21:11;;;;;;;16.75;9.90;;;;;;;;;;4988532;28;20031;-49
2024/01/10 00:23:37;;;;;;;17.17;9.88;;;;;;;;;;4988792;28;20038;-48
2024/01/10 00:26:03;;;;;;;22.45;11.00;;;;;;;;;;4989462;28;20522;-48
2024/01/10 00:28:29;;;;;;;18.30;10.73;;;;;;;;;;4987645;28;20074;-48
2024/01/10 00:30:55;;;;;;;17.80;12.10;;;;;;;;;;4972509;28;20085;-48
2024/01/10 00:33:21;;;;;;;21.08;12.60;;;;;;;;;;5013321;22;20473;-54
2024/01/10 00:35:46;;;;;;;19.25;12.43;;;-2.40;99.90;;;;;;5007651;28;20088;-54
2024/01/10 00:38:13;;;;;;;15.90;9.68;;;;;;;;;;5017692;28;20449;-53
2024/01/10 00:40:39;;;;;;;19.67;11.75;;;;;;;;;;5027914;28;20052;-53
2024/01/10 00:43:05;;;;;;;16.98;11.05;;;-2.30;99.90;;;;;;5028763;28;20042;-53
2024/01/10 00:45:31;;;;;;;18.40;12.13;;;;;;;;;;5027979;28;20381;-54
2024/01/10 00:47:58;;;;;;;15.30;9.90;;;;;;;;;;5029035;28;20068;-53
2024/01/10 00:50:24;;;;;;;18.75;11.80;;;;;;;;;;5028148;28;20048;-54
2024/01/10 00:52:50;;;;;;;20.63;11.85;;;;;;;;;;5026553;28;20052;-54
2024/01/10 00:55:15;;;;;;;17.55;11.23;;;-2.40;99.90;;;;;;5029487;28;20041;-53
2024/01/10 00:57:41;;;;;;;22.30;12.07;;;;;;;;;;5027615;28;20041;-54
2024/01/10 01:00:09;;;;;;;20.88;11.80;;;;;;;;;;5028253;28;20053;-53
2024/01/10 01:02:35;;;;;;;20.75;12.48;;;;;;;;;;5027607;28;20519;-53
2024/01/10 01:05:01;;;;;;;19.65;12.77;;;;;;;;;;5028372;28;20242;-53
2024/01/10 01:07:27;;;;;;;19.33;12.23;;;-2.30;99.90;;;;;;5023097;28;20135;-54
2024/01/10 01:09:53;;;;;;;19.38;12.73;;;;;;;;;;5026508;28;20085;-53
2024/01/10 01:12:19;;;;;;;22.02;13.23;;;;;;;;;;5026491;28;20464;-54
2024/01/10 01:14:45;;;;;;;21.63;12.82;;;;;;;;;;5028005;28;20040;-54
2024/01/10 01:17:11;;;;;;;19.15;12.35;;;;;;;;;;5028091;28;20051;-54
2024/01/10 01:19:37;;;;;;;22.90;14.05;;;;;;;;;;5027106;28;20156;-54
2024/01/10 01:22:03;;;;;;;22.40;14.48;;;;;;;;;;5010295;28;20053;-54
2024/01/10 01:24:29;;;;;;;23.85;15.38;;;;;;;;;;5023081;28;20049;-53
2024/01/10 01:26:55;;;;;;;19.98;13.90;;;;;;;;;;5022597;28;20049;-53
2024/01/10 01:29:21;;;;;;;23.48;14.68;;;;;;;;;;5026327;28;20040;-54
2024/01/10 01:31:48;;;;;;;20.25;12.38;;;;;;;;;;5022416;28;20068;-55
2024/01/10 01:34:13;;;;;;;20.23;13.38;;;;;;;;;;5028792;28;20112;-54
2024/01/10 01:36:40;;;;;;;22.52;13.80;;;;;;;;;;5027510;28;20572;-55
2024/01/10 01:39:05;;;;;;;22.77;15.35;;;-2.30;99.90;;;;;;5022584;28;20732;-55
2024/01/10 01:41:31;;;;;;;22.40;14.48;;;;;;;;;;5017847;28;20049;-55
2024/01/10 01:43:57;;;;;;;23.30;13.93;;;;;;;;;;5024178;28;20064;-54
2024/01/10 01:46:24;;;;;;;24.80;15.35;;;;;;;;;;5019305;28;20486;-51
2024/01/10 01:48:50;;;;;;;19.90;13.68;;;;;;;;;;5024351;28;20366;-52
2024/01/10 01:51:17;;;;;;;23.48;14.88;;;;;;;;;;5027785;28;20045;-54
2024/01/10 01:53:44;;;;;;;25.15;16.70;;;-2.90;99.90;;;;;;5026953;28;20517;-54
2024/01/10 01:56:12;;;;;;;25.63;15.65;;;-2.70;99.90;;;;;;5024901;28;20042;-54
2024/01/10 01:58:39;;;;;;;24.38;15.85;;;;;;;;;;5025226;28;20037;-53
2024/01/10 02:01:05;;;;;;;28.20;17.25;;;;;;;;;;5023091;28;20068;-53
2024/01/10 02:03:32;;;;;;;30.08;17.83;;;;;;;;;;5020824;28;20088;-52
2024/01/10 02:05:58;;;;;;;25.70;16.05;;;;;;;;;;5026443;28;20571;-53
2024/01/10 02:08:24;;;;;;;29.27;18.10;;;;;;;;;;5018764;28;20045;-54
2024/01/10 02:10:50;;;;;;;28.02;18.10;;;;;;;;;;5019495;28;20543;-54
2024/01/10 02:13:17;;;;;;;26.58;16.17;;;;;;;;;;5002680;28;20034;-51
2024/01/10 02:15:43;;;;;;;26.63;15.90;;;;;;;;;;5026802;28;20136;-53
2024/01/10 02:18:12;;;;;;;28.70;18.40;;;;;;;;;;5026819;28;20037;-51
2024/01/10 02:20:38;;;;;;;27.35;18.05;;;-2.70;99.90;;;;;;5023295;28;20056;-51
2024/01/10 02:23:04;;;;;;;28.20;17.30;;;;;;;;;;5009951;28;20053;-51
2024/01/10 02:25:30;;;;;;;26.50;17.33;;;;;;;;;;5022769;28;20584;-53
2024/01/10 02:27:56;;;;;;;28.13;17.85;;;;;;;;;;5026452;28;20056;-54
2024/01/10 02:30:22;;;;;;;25.60;17.02;;;;;;;;;;5026045;28;20041;-54
2024/01/10 02:32:48;;;;;;;29.05;17.73;;;;;;;;;;5018052;28;20076;-54
2024/01/10 02:35:14;;;;;;;26.63;17.25;;;;;;;;;;5027595;28;20091;-54
2024/01/10 02:37:40;;;;;;;26.20;16.50;;;;;;;;;;5025229;28;20505;-54
2024/01/10 02:40:06;;;;;;;28.02;17.67;;;;;;;;;;5008800;28;20041;-55
2024/01/10 02:42:32;;;;;;;26.92;17.08;;;;;;;;;;5027311;28;20039;-54
2024/01/10 02:44:58;;;;;;;24.35;16.27;;;;;;;;;;5022861;28;20120;-55
2024/01/10 02:47:24;;;;;;;25.30;16.83;;;-2.70;99.90;;;;;;5026415;28;20091;-54
2024/01/10 02:49:50;;;;;;;29.98;16.85;;;;;;;;;;5023395;28;20034;-55
2024/01/10 02:52:16;;;;;;;26.38;16.88;;;;;;;;;;5026274;28;20413;-53
2024/01/10 02:54:42;;;;;;;26.05;16.60;;;;;;;;;;5024294;28;20056;-53
2024/01/10 02:57:08;;;;;;;27.90;16.40;;;;;;;;;;5034403;28;20072;-53
2024/01/10 02:59:34;;;;;;;26.77;17.55;;;;;;;;;;5024422;28;20515;-54
2024/01/10 03:02:00;;;;;;;26.50;16.33;;;;;;;;;;5027624;28;20041;-54
2024/01/10 03:04:25;;;;;;;24.17;15.73;;;-2.90;99.90;;;;;;5029007;28;20034;-54
2024/01/10 03:06:51;;;;;;;24.33;17.02;;;;;;;;;;5020094;28;20124;-52
2024/01/10 03:09:17;;;;;;;29.50;18.95;;;;;;;;;;5026043;28;20033;-52
2024/01/10 03:11:44;;;;;;;27.88;18.58;;;;;;;;;;5019136;28;20073;-53
2024/01/10 03:14:10;;;;;;;21.88;14.90;;;;;;;;;;5025955;28;20476;-51
2024/01/10 03:16:37;;;;;;;26.27;17.35;;;;;;;;;;5023046;28;20053;-52
2024/01/10 03:19:03;;;;;;;28.08;17.00;;;;;;;;;;5025626;28;20396;-51
2024/01/10 03:21:29;;;;;;;23.83;16.13;;;;;;;;;;5007068;28;20046;-52
2024/01/10 03:23:59;;;;;;;26.63;16.90;;;-2.80;99.90;;;;;;5025930;28;20405;-53
2024/01/10 03:26:26;;;;;;;28.08;16.83;;;;;;;;;;5025117;28;20453;-51
2024/01/10 03:28:52;;;;;;;26.85;17.58;;;;;;;;;;5024611;28;20056;-54
2024/01/10 03:31:18;;;;;;;25.88;16.92;;;-2.80;99.90;;;;;;5026535;28;20131;-55
2024/01/10 03:33:44;;;;;;;32.08;17.65;;;;;;;;;;5025179;28;20041;-54
2024/01/10 03:36:12;;;;;;;28.33;18.25;;;;;;;;;;5022864;28;20493;-55
2024/01/10 03:38:38;;;;;;;31.15;18.83;;;;;;;;;;5023098;28;20485;-51
2024/01/10 03:41:04;;;;;;;23.27;15.15;;;;;;;;;;5021376;28;20382;-54
2024/01/10 03:43:30;;;;;;;25.75;15.70;;;;;;;;;;5023890;28;20038;-54
2024/01/10 03:45:57;;;;;;;25.60;16.35;;;;;;;;;;5027507;28;20041;-54
2024/01/10 03:48:23;;;;;;;26.27;16.38;;;-2.90;99.90;;;;;;5018515;28;20405;-54
2024/01/10 03:50:49;;;;;;;25.20;15.93;;;;;;;;;;5023946;28;20045;-54
2024/01/10 03:53:14;;;;;;;24.90;16.52;;;;;;;;;;5026566;28;20063;-54
2024/01/10 03:55:41;;;;;;;24.80;15.77;;;;;;;;;;5027750;28;20096;-54
2024/01/10 03:58:07;;;;;;;24.67;14.75;;;;;;;;;;5028179;28;20037;-54
2024/01/10 04:00:33;;;;;;;24.15;15.85;;;;;;;;;;5026870;28;20050;-54
2024/01/10 04:02:59;;;;;;;24.90;15.38;;;;;;;;;;5030697;28;20462;-54
2024/01/10 04:05:25;;;;;;;25.08;16.42;;;;;;;;;;5027100;28;20520;-54
2024/01/10 04:07:51;;;;;;;27.70;16.25;;;;;;;;;;5012689;28;20042;-54
2024/01/10 04:10:17;;;;;;;21.85;14.80;;;;;;;;;;5030215;28;20456;-54
2024/01/10 04:12:44;;;;;;;25.45;15.60;;;;;;;;;;5017423;28;20505;-54
2024/01/10 04:15:11;;;;;;;22.92;14.18;;;;;;;;;;5024694;28;20103;-53
2024/01/10 04:17:37;;;;;;;21.98;14.93;;;;;;;;;;5028388;28;20041;-54
2024/01/10 04:20:03;;;;;;;24.85;15.63;;;;;;;;;;5027883;28;20044;-52
2024/01/10 04:22:29;;;;;;;21.75;14.10;;;;;;;;;;5029457;28;20092;-54
2024/01/10 04:24:59;;;;;;;19.90;12.90;;;-3.00;99.90;;;;;;5012876;28;20049;-52
2024/01/10 04:27:26;;;;;;;25.05;14.38;;;;;;;;;;5028895;28;20029;-53
2024/01/10 04:29:52;;;;;;;19.55;11.45;;;;;;;;;;5029751;28;20041;-52
2024/01/10 04:32:18;;;;;;;22.25;13.90;;;;;;;;;;5025687;28;20037;-54
2024/01/10 04:34:44;;;;;;;23.33;13.85;;;;;;;;;;5029022;28;20045;-53
2024/01/10 04:37:10;;;;;;;21.67;13.20;;;;;;;;;;5012760;28;20041;-52
2024/01/10 04:39:37;;;;;;;20.10;13.20;;;;;;;;;;5029141;28;20029;-54
2024/01/10 04:42:03;;;;;;;23.13;14.27;;;;;;;;;;5029525;28;20504;-53
2024/01/10 04:44:29;;;;;;;20.17;12.68;;;;;;;;;;5026312;28;20092;-50
2024/01/10 04:46:55;;;;;;;21.77;14.07;;;-3.20;99.90;;;;;;5023998;28;20045;-54
2024/01/10 04:49:21;;;;;;;20.65;12.82;;;;;;;;;;5028255;28;20063;-51
2024/01/10 04:51:48;;;;;;;19.73;12.13;;;;;;;;;;5018254;28;20050;-54
2024/01/10 04:54:14;;;;;;;22.70;13.27;;;;;;;;;;5036098;28;20489;-51
2024/01/10 04:56:39;;;;;;;24.42;12.90;;;-3.20;99.90;;;;;;5031766;28;20049;-52
2024/01/10 04:59:06;;;;;;;22.63;12.43;;;;;;;;;;5035350;28;20038;-53
2024/01/10 05:01:32;;;;;;;22.30;12.82;;;;;;;;;;5030575;28;20098;-53
2024/01/10 05:03:58;;;;;;;21.50;12.82;;;;;;;;;;5026169;28;20834;-50
2024/01/10 05:06:24;;;;;;;23.05;13.30;;;;;;;;;;5025307;28;20857;-50
2024/01/10 05:08:50;;;;;;;20.80;13.43;;;;;;;;;;5027643;28;20048;-52
2024/01/10 05:11:16;;;;;;;23.50;13.57;;;;;;;;;;5025599;28;20042;-51
2024/01/10 05:13:43;;;;;;;21.20;12.82;;;;;;;;;;5027012;28;20029;-51
2024/01/10 05:16:09;;;;;;;18.77;11.25;;;;;;;;;;5028602;28;20452;-53
2024/01/10 05:18:35;;;;;;;20.55;12.88;;;;;;;;;;5017915;28;20397;-52
2024/01/10 05:21:01;;;;;;;20.88;14.13;;;;;;;;;;5023161;28;20037;-53
2024/01/10 05:23:27;;;;;;;21.95;13.88;;;;;;;;;;5034851;28;20068;-52
2024/01/10 05:25:54;;;;;;;20.80;12.57;;;;;;;;;;5028921;28;20060;-51
2024/01/10 05:28:20;;;;;;;21.60;13.43;;;;;;;;;;5021748;28;20069;-53
2024/01/10 05:30:46;;;;;;;22.98;13.95;;;;;;;;;;5023461;28;20048;-52
2024/01/10 05:33:12;;;;;;;20.63;13.15;;;;;;;;;;5027572;28;20029;-50
2024/01/10 05:35:41;;;;;;;23.88;13.90;;;;;;;;;;5031813;28;20178;-53
2024/01/10 05:38:07;;;;;;;21.38;13.05;;;;;;;;;;5017776;28;20065;-51
2024/01/10 05:40:33;;;;;;;20.10;12.13;;;-3.30;99.90;;;;;;5023360;28;20523;-54
2024/01/10 05:42:59;;;;;;;22.83;13.27;;;;;;;;;;5023803;28;20073;-54
2024/01/10 05:45:25;;;;;;;22.85;14.13;;;;;;;;;;5027647;28;20033;-52
2024/01/10 05:47:51;;;;;;;23.15;14.57;;;;;;;;;;5024427;28;20091;-53
2024/01/10 05:50:17;;;;;;;23.83;15.38;;;;;;;;;;5028056;28;20045;-51
2024/01/10 05:52:44;;;;;;;24.73;14.95;;;;;;;;;;5023183;28;20505;-53
2024/01/10 05:55:10;;;;;;;23.95;14.45;;;;;;;;;;5018526;28;20046;-53
2024/01/10 05:57:39;;;;;;;20.67;13.43;;;-3.30;99.90;;;;;;5024884;28;20045;-54
2024/01/10 06:00:09;;;;;;;20.90;13.07;;;;;;;;;;5030795;28;20033;-53
2024/01/10 06:02:38;;;;;;;22.10;13.13;;;;;;;;;;5028847;28;20121;-53
2024/01/10 06:05:08;;;;;;;25.55;14.05;;;;;;;;;;5029168;28;20041;-54
2024/01/10 06:07:35;;;;;;;21.88;14.27;;;;;;;;;;5028017;28;20044;-51
2024/01/10 06:10:01;;;;;;;23.77;15.65;;;;;;;;;;5023397;28;20049;-54
2024/01/10 06:12:28;;;;;;;22.13;14.77;;;;;;;;;;5021281;28;20037;-53
2024/01/10 06:14:54;;;;;;;21.73;13.82;;;;;;;;;;5019282;28;20037;-54
2024/01/10 06:17:20;;;;;;;21.05;13.75;;;;;;;;;;5014694;28;20038;-53
2024/01/10 06:19:46;;;;;;;22.48;15.20;;;;;;;;;;5012069;28;20131;-54
2024/01/10 06:22:12;;;;;;;22.17;15.10;;;;;;;;;;5024170;28;20040;-54
2024/01/10 06:24:38;;;;;;;23.60;14.93;;;;;;;;;;5024689;28;20548;-54
2024/01/10 06:27:05;;;;;;;22.35;14.57;;;;;;;;;;5025198;28;20135;-54
2024/01/10 06:29:31;;;;;;;22.17;14.43;;;-3.60;99.90;;;;;;5027724;28;20049;-54
2024/01/10 06:31:57;;;;;;;22.95;14.98;;;;;;;;;;5025224;28;20417;-53
2024/01/10 06:34:24;;;;;;;21.77;14.35;;;;;;;;;;5031579;28;20075;-50
2024/01/10 06:36:50;;;;;;;24.23;14.52;;;;;;;;;;5019254;28;20075;-49
2024/01/10 06:39:19;;;;;;;25.98;15.48;;;;;;;;;;5004674;28;20118;-49
2024/01/10 06:41:45;;;;;;;27.38;16.95;;;;;;;;;;5011897;28;20049;-50
2024/01/10 06:44:11;;;;;;;24.42;15.50;;;;;;;;;;5011675;28;20048;-52
2024/01/10 06:46:37;;;;;;;24.33;14.65;;;;;;;;;;5025132;28;20093;-54
2024/01/10 06:49:03;;;;;;;26.25;17.05;;;;;;;;;;5023129;28;20457;-54
2024/01/10 06:51:29;;;;;;;29.10;17.83;;;;;;;;;;5011212;28;20105;-54
2024/01/10 06:54:02;;;;;;;24.08;15.93;;;;;;;;;;5022419;28;20075;-54
2024/01/10 06:56:28;;;;;;;29.52;19.15;;;;;;;;;;5020264;28;20109;-54
2024/01/10 06:58:54;;;;;;;25.40;16.73;;;;;;;;;;5022362;28;20079;-53
2024/01/10 07:01:21;;;;;;;29.40;20.05;;;;;;;;;;5019737;28;20042;-54
2024/01/10 07:03:48;;;;;;;29.30;18.98;;;;;;;;;;5023436;28;20041;-52
2024/01/10 07:06:17;;;;;;;29.83;19.58;;;;;;;;;;5023008;28;20505;-53
2024/01/10 07:08:44;;;;;;;29.67;19.30;;;;;;;;;;5021175;28;20076;-54
2024/01/10 07:11:14;;;;;;;28.13;18.58;;;;;;;;;;5025682;28;20049;-54
2024/01/10 07:13:41;;;;;;;26.17;17.65;;;;;;;;;;5026077;28;20049;-54
2024/01/10 07:16:07;;;;;;;27.00;18.25;;;-3.40;99.90;;;;;;5027330;28;20033;-53
2024/01/10 07:18:33;;;;;;;25.50;17.20;;;;;;;;;;5011243;28;20041;-54
2024/01/10 07:20:59;;;;;;;29.42;17.17;;;-3.50;99.90;;;;;;5025580;28;20041;-54
2024/01/10 07:23:25;;;;;;;26.13;17.80;;;;;;;;;;5023140;28;20046;-53
2024/01/10 07:25:51;;;;;;;24.63;16.58;;;-3.50;99.90;;;;;;5026793;28;20038;-54
2024/01/10 07:28:20;;;;;;;25.77;15.63;;;;;;;;;;5027204;28;20036;-51
2024/01/10 07:30:47;;;;;;;25.33;16.40;;;;;;;;;;5025567;28;20038;-53
2024/01/10 07:33:13;;;;;;;26.13;16.10;;;;;;;;;;5012954;28;20041;-54
2024/01/10 07:35:38;;;;;;;25.65;15.60;;;-3.50;99.90;;;;;;5030055;28;20040;-52
2024/01/10 07:38:07;;;;;;;26.30;17.70;;;;;;;;;;5027895;28;20033;-54
2024/01/10 07:40:33;;;;;;;23.23;15.15;;;;;;;;;;5028648;28;20047;-53
2024/01/10 07:42:59;;;;;;;26.77;16.35;;;;;;;;;;4994032;28;20405;-54
2024/01/10 07:45:26;;;;;;;26.40;18.67;;;;;;;;;;5015492;28;20095;-53
2024/01/10 07:47:52;;;;;;;26.27;16.23;;;;;;;;;;5019039;28;20041;-54
2024/01/10 07:50:19;;;;;;;23.02;15.27;;;;;;;;;;5012302;28;20049;-53
2024/01/10 07:52:46;;;;;;;23.73;15.20;;;;;;;;;;5018071;28;20492;-51
2024/01/10 07:55:12;;;;;;;28.85;17.20;;;;;;;;;;5020278;28;20045;-54
2024/01/10 07:57:38;;;;;;;27.20;16.90;;;-3.60;99.90;;;;;;5025215;28;20604;-53
2024/01/10 08:00:13;;;;;;;26.10;15.95;;;;;;;;;;5026284;28;20039;-53
2024/01/10 08:02:39;;;;;;;25.13;16.35;;;-3.30;99.90;;;;;;5020818;28;20043;-54
2024/01/10 08:05:08;;;;;;;29.55;17.10;;;;;;;;;;5026113;28;20080;-53
2024/01/10 08:07:36;;;;;;;28.63;17.27;;;;;;;;;;5026863;28;20038;-54
2024/01/10 08:10:04;;;;;;;25.50;16.27;;;;;;;;;;5023119;28;20034;-53
2024/01/10 08:12:30;;;;;;;24.13;17.13;;;;;;;;;;5021722;28;20053;-51
2024/01/10 08:14:56;;;;;;;26.38;17.70;;;;;;;;;;5024700;28;20041;-55
2024/01/10 08:17:23;;;;;;;26.52;15.82;;;-3.00;99.90;;;;;;5024296;28;20038;-54
2024/01/10 08:19:49;;;;;;;25.38;15.48;;;;;;;;;;5026802;28;20049;-53
2024/01/10 08:22:15;;;;;;;21.50;13.80;;;;;;;;;;5026218;28;20053;-51
2024/01/10 08:24:41;;;;;;;24.80;14.82;;;;;;;;;;5029774;28;20037;-55
2024/01/10 08:27:07;;;;;;;25.80;16.42;;;;;;;;;;5021615;28;20045;-52
2024/01/10 08:29:33;;;;;;;24.13;15.20;;;;;;;;;;5020429;28;20065;-51
2024/01/10 08:31:59;;;;;;;20.33;12.57;;;;;;;;;;5008888;28;20073;-53
2024/01/10 08:34:26;;;;;;;21.90;14.00;;;;;;;;;;5025635;28;20546;-50
2024/01/10 08:36:53;;;;;;;22.80;14.43;;;;;;;;;;5026743;28;20045;-53
2024/01/10 08:39:18;;;;;;;20.38;13.15;;;-3.00;99.90;;;;;;5021335;28;20045;-54
2024/01/10 08:41:44;;;;;;;19.48;12.30;;;;;;;;;;5026121;28;20459;-54
2024/01/10 08:44:11;;;;;;;19.55;11.20;;;-2.60;99.90;;;;;;5024663;28;20099;-54
2024/01/10 08:46:37;;;;;;;21.13;12.88;;;;;;;;;;5026031;28;20095;-53
2024/01/10 08:49:03;;;;;;;22.80;14.80;;;;;;;;;;5021340;28;20042;-53
2024/01/10 08:51:30;;;;;;;21.10;14.43;;;;;;;;;;5027144;28;20125;-53
2024/01/10 08:53:56;;;;;;;22.55;13.13;;;;;;;;;;5009738;28;20034;-54
2024/01/10 08:56:23;;;;;;;20.40;12.30;;;;;;;;;;5025160;28;20041;-54
2024/01/10 08:58:50;;;;;;;18.45;11.05;;;;;;;;;;5022797;28;20045;-54
2024/01/10 09:01:16;;;;;;;19.95;12.85;;;;;;;;;;5008794;28;20696;-54
2024/01/10 09:03:42;;;;;;;19.42;12.55;;;;;;;;;;5024605;28;20042;-53
2024/01/10 09:06:08;;;;;;;19.33;11.70;;;;;;;;;;5021659;28;20037;-53
2024/01/10 09:08:37;;;;;;;18.20;11.50;;;;;;;;;;5023657;28;20045;-50
2024/01/10 09:11:03;;;;;;;21.02;11.45;;;;;;;;;;5019660;28;20099;-53
2024/01/10 09:13:29;;;;;;;18.42;11.32;;;;;;;;;;5030244;28;20052;-53
2024/01/10 09:15:56;;;;;;;19.45;10.63;;;;;;;;;;5026356;28;20133;-53
2024/01/10 09:18:22;;;;;;;17.27;10.13;;;;;;;;;;5026751;28;20505;-52
2024/01/10 09:20:48;;;;;;;17.30;10.02;;;;;;;;;;5027767;28;20151;-53
2024/01/10 09:23:15;;;;;;;16.50;9.57;;;;;;;;;;5026991;28;20044;-54
2024/01/10 09:25:41;;;;;;;17.30;9.52;;;;;;;;;;5021604;28;20041;-52
2024/01/10 09:28:07;;;;;;;16.95;10.27;;;;;;;;;;5021366;28;20076;-53
2024/01/10 09:30:33;;;;;;;18.25;9.73;;;-2.60;99.90;;;;;;5025371;28;20046;-50
2024/01/10 09:33:00;;;;;;;17.02;9.45;;;-2.60;99.90;;;;;;5024490;28;20598;-51
2024/01/10 09:35:26;;;;;;;16.80;9.27;;;;;;;;;;5012021;28;20057;-50
2024/01/10 09:37:53;;;;;;;17.17;9.23;;;-2.50;99.90;;;;;;5022544;28;20083;-49
2024/01/10 09:40:21;;;;;;;16.00;8.63;;;;;;;;;;5025125;28;20053;-52
2024/01/10 09:42:50;;;;;;;17.42;9.60;;;;;;;;;;5026718;28;20759;-50
2024/01/10 09:45:18;;;;;;;17.33;9.60;;;;;;;;;;5024646;28;20045;-50
2024/01/10 09:47:45;;;;;;;15.18;8.77;;;;;;;;;;5024558;28;20049;-52
2024/01/10 09:50:11;;;;;;;15.10;9.07;;;;;;;;;;5021376;28;20488;-49
2024/01/10 09:52:58;;;;;;;15.45;8.82;;;;;;;;;;5021996;28;20033;-52
2024/01/10 09:55:30;;;;;;;18.55;10.05;;;-2.70;99.90;;;;;;5022622;28;20033;-53
2024/01/10 09:57:56;;;;;;;14.43;7.80;;;;;;;;;;5025038;28;20041;-51
2024/01/10 10:00:25;;;;;;;16.45;8.43;;;;;;;;;;5017501;28;20459;-51
2024/01/10 10:02:51;;;;;;;16.35;9.30;;;;;;;;;;5023271;28;20049;-51
2024/01/10 10:05:18;;;;;;;14.32;8.05;;;;;;;;;;5027333;28;20029;-49
2024/01/10 10:07:47;;;;;;;20.23;9.35;;;;;;;;;;5026747;28;20037;-52
2024/01/10 10:10:14;;;;;;;14.50;6.60;;;;;;;;;;5024585;28;20584;-50
2024/01/10 10:12:44;;;;;;;14.82;6.95;;;;;;;;;;5023204;28;20068;-53
2024/01/10 10:15:18;;;;;;;15.23;7.50;;;;;;;;;;5027774;28;20049;-53
2024/01/10 10:17:48;;;;;;;17.45;7.70;;;-1.90;99.90;;;;;;5023574;28;20068;-49
2024/01/10 10:20:23;;;;;;;16.00;7.63;;;;;;;;;;5026343;28;20412;-49
2024/01/10 10:23:03;;;;;;;14.20;6.88;;;;;;;;;;5027347;28;20052;-49
2024/01/10 10:25:31;;;;;;;13.60;6.97;;;;;;;;;;5025383;28;20050;-52
2024/01/10 10:27:57;;;;;;;14.65;6.53;;;;;;;;;;5021192;28;20037;-49
2024/01/10 10:30:23;;;;;;;12.77;6.93;;;;;;;;;;5021728;28;20037;-50
2024/01/10 10:32:50;;;;;;;14.55;6.53;;;-1.80;99.90;;;;;;5025365;28;20678;-49
2024/01/10 10:35:16;;;;;;;14.48;6.88;;;;;;;;;;5026293;28;20052;-49
2024/01/10 10:37:41;;;;;;;13.68;6.30;;;-1.80;99.90;;;;;;5021873;28;20081;-49
2024/01/10 10:40:11;;;;;;;14.82;6.65;;;;;;;;;;5024531;28;20045;-49
2024/01/10 10:42:39;;;;;;;16.25;7.93;;;;;;;;;;5024477;28;20510;-50
2024/01/10 10:45:06;;;;;;;13.18;6.45;;;-1.60;99.90;;;;;;5023461;28;20116;-50
2024/01/10 10:47:36;;;;;;;13.38;6.47;;;-1.80;99.90;;;;;;5006354;28;21264;-49
2024/01/10 10:50:04;;;;;;;11.82;6.00;;;;;;;;;;5023169;28;20432;-49
2024/01/10 10:52:31;;;;;;;16.17;6.90;;;;;;;;;;5024500;28;20104;-50
2024/01/10 10:54:59;;;;;;;14.05;6.75;;;;;;;;;;5009055;28;20504;-49
2024/01/10 10:57:26;;;;;;;10.60;5.65;;;-1.60;99.90;;;;;;5024899;28;20033;-50
2024/01/10 10:59:53;;;;;;;13.27;6.30;;;;;;;;;;5026021;28;20038;-50
2024/01/10 11:02:25;;;;;;;14.02;6.53;;;;;;;;;;5024216;28;20044;-51
2024/01/10 11:04:51;;;;;;;15.70;6.97;;;;;;;;;;5024459;28;20041;-49
2024/01/10 11:07:17;;;;;;;12.98;6.50;;;;;;;;;;5027723;28;20042;-50
2024/01/10 11:09:45;;;;;;;14.52;6.20;;;-1.20;99.90;;;;;;5030279;28;20497;-50
2024/01/10 11:12:20;;;;;;;11.68;5.78;;;;;;;;;;5031159;28;20493;-49
2024/01/10 11:15:23;;;;;;;14.27;5.70;;;-1.00;99.90;;;;;;5028751;28;20041;-51
2024/01/10 11:18:12;;;;;;;12.30;5.22;;;;;;;;;;5028613;28;20389;-49
2024/01/10 11:20:58;;;;;;;11.18;5.15;;;;;;;;;;5027485;28;20073;-52
2024/01/10 11:23:24;;;;;;;11.45;5.63;;;;;;;;;;5028758;28;20120;-53
2024/01/10 11:25:51;;;;;;;14.20;6.80;;;-1.40;99.90;;;;;;5027706;28;20548;-53
2024/01/10 11:28:17;;;;;;;13.90;5.97;;;;;;;;;;5027086;28;20088;-53
2024/01/10 11:30:51;;;;;;;16.10;7.47;;;;;;;;;;5021260;28;20438;-52
2024/01/10 11:33:25;;;;;;;15.18;7.15;;;;;;;;;;5022769;28;20033;-54
2024/01/10 11:36:10;;;;;;;12.73;6.18;;;;;;;;;;5022159;28;20065;-53
2024/01/10 11:38:40;;;;;;;12.40;6.10;;;;;;;;;;5024998;28;20038;-54
2024/01/10 11:41:08;;;;;;;12.13;6.65;;;;;;;;;;5029102;28;20045;-53
2024/01/10 11:43:34;;;;;;;12.80;5.88;;;;;;;;;;5022633;28;20092;-54
2024/01/10 11:46:01;;;;;;;15.07;6.65;;;;;;;;;;5023624;28;20042;-53
2024/01/10 11:48:28;;;;;;;12.20;6.22;;;;;;;;;;5023198;28;20067;-52
2024/01/10 11:50:55;;;;;;;11.52;5.57;;;;;;;;;;5027172;28;20115;-51
2024/01/10 11:53:39;;;;;;;11.98;5.47;;;-0.60;99.90;;;;;;5024677;28;20053;-54
2024/01/10 11:56:15;;;;;;;12.88;6.43;;;-0.10;99.90;;;;;;5021053;28;20034;-50
2024/01/10 11:59:03;;;;;;;12.73;7.05;;;;;;;;;;5025062;28;20041;-51
2024/01/10 12:01:29;;;;;;;10.32;4.55;;;;;;;;;;5020818;28;20045;-51
2024/01/10 12:03:56;;;;;;;14.70;6.63;;;;;;;;;;5029080;28;20216;-51
2024/01/10 12:06:23;;;;;;;11.70;5.68;;;1.60;99.90;;;;;;5009826;28;20042;-52
2024/01/10 12:08:50;;;;;;;12.77;6.45;;;;;;;;;;5009842;28;20083;-53
2024/01/10 12:11:16;;;;;;;12.68;6.97;;;;;;;;;;5028035;28;20038;-52
2024/01/10 12:13:42;;;;;;;11.25;5.65;;;;;;;;;;5010273;28;20048;-50
2024/01/10 12:16:08;;;;;;;11.05;5.50;;;;;;;;;;5024686;28;20121;-51
2024/01/10 12:18:33;;;;;;;11.38;5.47;;;8.10;99.90;;;;;;5027034;28;20572;-49
2024/01/10 12:20:59;;;;;;;12.48;6.22;;;8.90;99.90;;;;;;5027519;28;20049;-53
2024/01/10 12:23:31;;;;;;;11.77;6.03;;;;;;;;;;5027180;28;20033;-52
2024/01/10 12:25:57;;;;;;;16.27;7.70;;;;;;;;;;5027789;28;20053;-52
2024/01/10 12:28:24;;;;;;;15.80;7.88;;;;;;;;;;5024601;28;20393;-51
2024/01/10 12:30:50;;;;;;;13.55;6.82;;;;;;;;;;5026939;28;20065;-50
2024/01/10 12:33:17;;;;;;;16.98;8.43;;;;;;;;;;5115772;23;20035;-49
2024/01/10 12:35:43;;;;;;;13.27;7.78;;;;;;;;;;5002242;28;20056;-52
2024/01/10 12:38:12;;;;;;;14.02;7.78;;;;;;;;;;5008509;28;20556;-51
2024/01/10 12:40:38;;;;;;;14.40;7.28;;;;;;;;;;5010263;28;20034;-50
2024/01/10 12:43:05;;;;;;;12.73;6.03;;;;;;;;;;5007493;28;20049;-55
2024/01/10 12:45:31;;;;;;;11.30;5.82;;;;;;;;;;5008743;28;20073;-51
2024/01/10 12:47:59;;;;;;;12.10;6.38;;;15.10;99.90;;;;;;5008526;28;20471;-53
2024/01/10 12:50:25;;;;;;;11.10;6.82;;;;;;;;;;5003153;28;20041;-54
2024/01/10 12:52:52;;;;;;;9.15;4.82;;;;;;;;;;5009341;28;20129;-53
2024/01/10 12:55:17;;;;;;;10.30;6.00;;;16.00;99.90;;;;;;5009271;28;20555;-54
2024/01/10 12:57:44;;;;;;;11.93;6.55;;;16.50;99.90;;;;;;4989506;28;20043;-54
2024/01/10 13:00:11;;;;;;;11.25;6.30;;;15.70;99.90;;;;;;5003608;28;20084;-51
2024/01/10 13:02:37;;;;;;;10.63;6.20;;;16.40;99.90;;;;;;5004464;28;20034;-55
2024/01/10 13:05:09;;;;;;;10.90;5.95;;;15.90;99.90;;;;;;5008875;28;20118;-54
2024/01/10 13:07:38;;;;;;;9.50;6.07;;;16.70;99.90;;;;;;5004425;28;20121;-55
2024/01/10 13:10:04;;;;;;;11.48;7.75;;;16.80;99.90;;;;;;5004659;28;20064;-55
2024/01/10 13:12:30;;;;;;;10.75;7.32;;;16.00;99.90;;;;;;5005060;28;20030;-54
2024/01/10 13:14:55;;;;;;;10.70;6.53;;;17.00;99.90;;;;;;5007645;28;20054;-54
2024/01/10 13:17:22;;;;;;;10.23;6.72;;;16.50;99.90;;;;;;5006815;28;20397;-56
2024/01/10 13:19:51;;;;;;;10.77;6.10;;;17.20;99.90;;;;;;5006427;28;20053;-56
2024/01/10 13:22:19;;;;;;;9.60;6.32;;;17.00;99.90;;;;;;5005410;28;20449;-54
2024/01/10 13:24:45;;;;;;;13.00;7.43;;;16.30;99.90;;;;;;5004693;28;20058;-56
2024/01/10 13:27:11;;;;;;;11.45;7.00;;;17.20;99.90;;;;;;5009217;28;20042;-56
2024/01/10 13:29:38;;;;;;;10.63;6.72;;;17.40;99.90;;;;;;5007531;28;20152;-56
2024/01/10 13:32:05;;;;;;;10.85;6.90;;;17.30;99.90;;;;;;5008523;28;20066;-56
2024/01/10 13:34:31;;;;;;;11.63;7.75;;;17.30;99.90;;;;;;5006855;28;20085;-57
2024/01/10 13:36:58;;;;;;;10.40;6.43;;;17.50;99.90;;;;;;5009083;28;20409;-56
2024/01/10 13:39:23;;;;;;;10.27;6.63;;;17.40;99.90;;;;;;5004283;28;20069;-57
2024/01/10 13:41:49;;;;;;;10.45;6.10;;;17.00;99.90;;;;;;5007038;28;20073;-56
2024/01/10 13:44:16;;;;;;;10.55;6.80;;;16.00;99.90;;;;;;5008753;28;20053;-53
2024/01/10 13:46:41;;;;;;;10.05;6.28;;;14.60;99.90;;;;;;5003846;28;20034;-57
2024/01/10 13:49:07;;;;;;;10.73;7.05;;;13.10;99.90;;;;;;5006297;28;20552;-54
2024/01/10 13:51:32;;;;;;;10.38;6.30;;;12.30;99.90;;;;;;5006912;28;20042;-57
2024/01/10 13:53:58;;;;;;;11.25;7.20;;;11.20;99.90;;;;;;5007458;28;20508;-57